Time;durP1;ratioP1;P1;durP2;ratioP2;P2;SDS_P1;SDS_P2;PMS_P1;PMS_P2;Temp;Humidity;BMP_temperature;BMP_pressure;BME280_temperature;BME280_humidity;BME280_pressure;Samples;Min_cycle;Max_cycle;Signal;HPM_P1;HPM_P2
2020/12/17 00:00:25;;;;;;;57.77;31.13;;;;;;;;;;6224789;23;20490;-96
2020/12/17 00:02:51;;;;;;;52.40;28.37;;;;;;;;;;6225111;23;20501;-95
2020/12/17 00:05:18;;;;;;;49.70;27.97;;;;;;;;;;6227166;23;20518;-96
2020/12/17 00:07:45;;;;;;;60.00;29.67;;;;;;;;;;6228710;23;20436;-94
2020/12/17 00:10:12;;;;;;;51.73;27.40;;;;;;;;;;6225586;23;20415;-95
2020/12/17 00:12:39;;;;;;;47.77;27.07;;;;;;;;;;6226549;23;20411;-94
2020/12/17 00:15:06;;;;;;;53.07;27.97;;;;;;;;;;6225508;23;20414;-94
2020/12/17 00:17:32;;;;;;;50.53;27.73;;;;;;;;;;6227749;23;20485;-95
2020/12/17 00:19:58;;;;;;;56.17;27.73;;;;;;;;;;6229406;23;20442;-95
2020/12/17 00:22:25;;;;;;;57.07;28.03;;;;;;;;;;6230799;23;20477;-95
2020/12/17 00:24:52;;;;;;;48.70;27.70;;;;;;;;;;6226586;23;20441;-94
2020/12/17 00:27:18;;;;;;;49.80;27.50;;;;;;;;;;6227391;23;20433;-96
2020/12/17 00:29:44;;;;;;;50.10;27.40;;;;;;;;;;6227161;23;20415;-96
2020/12/17 00:32:13;;;;;;;53.17;28.57;;;;;;;;;;6227989;23;20430;-95
2020/12/17 00:34:39;;;;;;;53.50;29.80;;;;;;;;;;6229576;23;20443;-96
2020/12/17 00:37:05;;;;;;;55.57;31.57;;;;;;;;;;6226669;23;20434;-95
2020/12/17 00:39:31;;;;;;;51.50;29.50;;;;;;;;;;6229985;23;20442;-95
2020/12/17 00:41:58;;;;;;;51.37;28.87;;;;;;;;;;6226067;23;20450;-95
2020/12/17 00:44:24;;;;;;;54.13;29.53;;;;;;;;;;6227183;23;20414;-95
2020/12/17 00:46:51;;;;;;;44.77;26.60;;;;;;;;;;6223410;23;20410;-96
2020/12/17 00:49:17;;;;;;;49.33;27.33;;;;;;;;;;6224662;23;20438;-95
2020/12/17 00:51:43;;;;;;;56.23;30.27;;;;;;;;;;6224295;23;20402;-96
2020/12/17 00:54:09;;;;;;;59.90;30.63;;;;;;;;;;6225781;23;20525;-96
2020/12/17 00:56:36;;;;;;;60.97;28.43;;;;;;;;;;6226683;23;20494;-96
2020/12/17 00:59:03;;;;;;;65.90;30.60;;;;;;;;;;6226365;23;20525;-95
2020/12/17 01:01:29;;;;;;;61.53;29.93;;;;;;;;;;6229138;23;20542;-96
2020/12/17 01:03:55;;;;;;;55.27;29.13;;;;;;;;;;6230108;23;20422;-96
2020/12/17 01:06:21;;;;;;;55.50;31.20;;;;;;;;;;6236258;23;20418;-96
2020/12/17 01:08:47;;;;;;;59.90;32.80;;;;;;;;;;6230983;23;20423;-95
2020/12/17 01:11:13;;;;;;;57.80;32.20;;;;;;;;;;6226961;23;20403;-96
2020/12/17 01:13:39;;;;;;;56.73;31.20;;;;;;;;;;6227027;23;20992;-96
2020/12/17 01:16:08;;;;;;;58.20;31.60;;;;;;;;;;6225312;23;20486;-96
2020/12/17 01:18:34;;;;;;;57.37;29.40;;;;;;;;;;6225622;23;20986;-94
2020/12/17 01:21:03;;;;;;;52.10;26.93;;;;;;;;;;6224039;23;20450;-96
2020/12/17 01:23:29;;;;;;;43.63;24.20;;;;;;;;;;6225743;23;20514;-95
2020/12/17 01:25:55;;;;;;;44.40;25.67;;;;;;;;;;6224472;23;20422;-95
2020/12/17 01:28:22;;;;;;;46.20;24.20;;;;;;;;;;6226946;23;20499;-96
2020/12/17 01:30:48;;;;;;;43.57;23.03;;;;;;;;;;6220919;23;20470;-95
2020/12/17 01:33:15;;;;;;;42.57;22.93;;;;;;;;;;6226872;23;20442;-96
2020/12/17 01:35:41;;;;;;;40.47;24.63;;;;;;;;;;6225946;23;20501;-95
2020/12/17 01:38:07;;;;;;;46.40;23.97;;;;;;;;;;6227096;23;20419;-96
2020/12/17 01:40:33;;;;;;;44.50;25.20;;;;;;;;;;6227621;23;20447;-95
2020/12/17 01:43:00;;;;;;;45.23;24.90;;;;;;;;;;6227005;23;20486;-96
2020/12/17 01:45:26;;;;;;;45.93;26.07;;;;;;;;;;6227208;23;20502;-96
2020/12/17 01:47:53;;;;;;;41.77;24.03;;;;;;;;;;6222218;23;20414;-96
2020/12/17 01:50:20;;;;;;;44.43;24.50;;;;;;;;;;6221813;23;20502;-95
2020/12/17 01:52:47;;;;;;;45.03;26.37;;;;;;;;;;6220431;23;20495;-96
2020/12/17 01:55:13;;;;;;;43.97;25.23;;;;;;;;;;6222044;23;20415;-96
2020/12/17 01:57:41;;;;;;;50.77;26.20;;;;;;;;;;6225034;23;20738;-96
2020/12/17 02:00:08;;;;;;;55.03;28.60;;;;;;;;;;6224347;23;20469;-96
2020/12/17 02:02:35;;;;;;;53.40;28.80;;;;;;;;;;6226344;23;20659;-96
2020/12/17 02:05:01;;;;;;;53.03;29.40;;;;;;;;;;6225571;23;20421;-95
2020/12/17 02:07:28;;;;;;;59.10;31.60;;;;;;;;;;6224531;23;20411;-95
2020/12/17 02:09:55;;;;;;;53.87;30.40;;;;;;;;;;6225069;23;20408;-95
2020/12/17 02:12:21;;;;;;;57.00;28.70;;;;;;;;;;6226663;23;20726;-96
2020/12/17 02:14:47;;;;;;;59.50;30.10;;;;;;;;;;6226179;23;20466;-96
2020/12/17 02:17:13;;;;;;;55.97;30.93;;;;;;;;;;6227750;23;20413;-94
2020/12/17 02:19:39;;;;;;;57.07;31.00;;;;;;;;;;6224420;23;20414;-96
2020/12/17 02:22:06;;;;;;;53.93;28.10;;;;;;;;;;6227774;23;20510;-96
2020/12/17 02:24:33;;;;;;;62.70;29.60;;;;;;;;;;6227891;23;20430;-96
2020/12/17 02:26:59;;;;;;;60.13;28.83;;;;;;;;;;6224606;23;20487;-96
2020/12/17 02:29:25;;;;;;;54.63;27.33;;;;;;;;;;6227913;23;21152;-94
2020/12/17 02:31:51;;;;;;;55.77;29.30;;;;;;;;;;6226384;23;20529;-95
2020/12/17 02:34:17;;;;;;;54.87;28.67;;;;;;;;;;6226574;23;20497;-96
2020/12/17 02:36:43;;;;;;;59.10;28.90;;;;;;;;;;6223317;23;20526;-95
2020/12/17 02:39:09;;;;;;;52.00;28.80;;;;;;;;;;6224098;23;20446;-95
2020/12/17 02:41:37;;;;;;;59.17;29.33;;;;;;;;;;6223468;23;20555;-95
2020/12/17 02:44:03;;;;;;;46.93;26.70;;;;;;;;;;6225053;23;20482;-95
2020/12/17 02:46:29;;;;;;;52.10;26.77;;;;;;;;;;6226714;23;20438;-94
2020/12/17 02:48:55;;;;;;;61.40;29.63;;;;;;;;;;6226846;23;20426;-94
2020/12/17 02:51:21;;;;;;;60.50;30.97;;;;;;;;;;6230910;23;20410;-93
2020/12/17 02:53:48;;;;;;;59.50;32.43;;;;;;;;;;6230569;23;20415;-95
2020/12/17 02:56:14;;;;;;;58.40;32.30;;;;;;;;;;6236692;23;20470;-94
2020/12/17 02:58:44;;;;;;;56.10;32.30;;;;;;;;;;6235029;23;20448;-96
2020/12/17 03:01:10;;;;;;;50.53;27.60;;;;;;;;;;6226975;23;20441;-95
2020/12/17 03:03:36;;;;;;;54.07;28.57;;;;;;;;;;6225722;23;20442;-95
2020/12/17 03:06:02;;;;;;;47.90;26.40;;;;;;;;;;6227735;23;20569;-95
2020/12/17 03:08:28;;;;;;;46.87;25.03;;;;;;;;;;6228925;23;20433;-95
2020/12/17 03:10:54;;;;;;;42.70;23.30;;;;;;;;;;6225861;23;20418;-96
2020/12/17 03:13:20;;;;;;;45.93;24.80;;;;;;;;;;6226412;23;20497;-95
2020/12/17 03:15:47;;;;;;;46.47;25.37;;;;;;;;;;6226833;23;20429;-94
2020/12/17 03:18:14;;;;;;;51.87;26.00;;;;;;;;;;6228042;23;20429;-95
2020/12/17 03:20:40;;;;;;;40.00;23.50;;;;;;;;;;6226314;23;20406;-95
2020/12/17 03:23:07;;;;;;;50.97;25.77;;;;;;;;;;6227394;23;20437;-95
2020/12/17 03:25:33;;;;;;;45.13;25.47;;;;;;;;;;6226059;23;20426;-96
2020/12/17 03:27:59;;;;;;;46.67;25.40;;;;;;;;;;6226325;23;20452;-95
2020/12/17 03:30:25;;;;;;;52.67;26.43;;;;;;;;;;6227354;23;20406;-95
2020/12/17 03:32:52;;;;;;;43.47;25.20;;;;;;;;;;6226371;23;20422;-95
2020/12/17 03:35:18;;;;;;;46.93;26.60;;;;;;;;;;6227136;23;20422;-95
2020/12/17 03:37:44;;;;;;;46.40;26.43;;;;;;;;;;6225850;23;20423;-95
2020/12/17 03:40:10;;;;;;;44.37;25.40;;;;;;;;;;6227570;23;20440;-95
2020/12/17 03:42:37;;;;;;;45.60;25.40;;;;;;;;;;6226598;23;20452;-95
2020/12/17 03:45:03;;;;;;;37.67;22.33;;;;;;;;;;6228634;23;20399;-95
2020/12/17 03:47:29;;;;;;;39.80;23.90;;;;;;;;;;6226832;23;20414;-94
2020/12/17 03:49:56;;;;;;;49.57;25.50;;;;;;;;;;6226990;23;20414;-96
2020/12/17 03:52:22;;;;;;;45.73;26.90;;;;;;;;;;6227413;23;20438;-96
2020/12/17 03:54:49;;;;;;;56.50;32.20;;;;;;;;;;6227337;23;20473;-95
2020/12/17 03:57:15;;;;;;;69.87;43.07;;;;;;;;;;6228579;23;20437;-95
2020/12/17 03:59:41;;;;;;;62.50;41.07;;;;;;;;;;6225909;23;20410;-95
2020/12/17 04:02:07;;;;;;;60.63;39.77;;;;;;;;;;6225104;23;20466;-95
2020/12/17 04:04:33;;;;;;;62.33;39.97;;;;;;;;;;6224591;23;20529;-96
2020/12/17 04:07:00;;;;;;;60.80;38.37;;;;;;;;;;6227065;23;20475;-96
2020/12/17 04:09:26;;;;;;;60.97;36.97;;;;;;;;;;6227236;23;20414;-96
2020/12/17 04:11:52;;;;;;;55.87;32.93;;;;;;;;;;6226249;23;20486;-95
2020/12/17 04:14:18;;;;;;;50.67;32.30;;;;;;;;;;6227826;23;20409;-95
2020/12/17 04:16:44;;;;;;;57.20;33.37;;;;;;;;;;6225515;23;20406;-95
2020/12/17 04:19:10;;;;;;;59.07;32.27;;;;;;;;;;6227401;23;20411;-95
2020/12/17 04:21:36;;;;;;;50.80;31.70;;;;;;;;;;6226469;23;20479;-95
2020/12/17 04:24:03;;;;;;;53.97;32.70;;;;;;;;;;6228192;23;20433;-95
2020/12/17 04:26:30;;;;;;;58.00;30.60;;;;;;;;;;6227022;23;20418;-95
2020/12/17 04:29:00;;;;;;;55.43;32.30;;;;;;;;;;6228247;23;20509;-96
2020/12/17 04:31:26;;;;;;;55.40;32.20;;;;;;;;;;6226779;23;20421;-95
2020/12/17 04:33:52;;;;;;;54.00;33.07;;;;;;;;;;6227888;23;20831;-95
2020/12/17 04:36:18;;;;;;;54.93;33.83;;;;;;;;;;6228960;23;20406;-95
2020/12/17 04:38:44;;;;;;;63.50;36.50;;;;;;;;;;6229922;23;20419;-94
2020/12/17 04:41:12;;;;;;;52.37;33.90;;;;;;;;;;6234292;23;20466;-95
2020/12/17 04:43:38;;;;;;;55.80;36.27;;;;;;;;;;6227884;23;20437;-95
2020/12/17 04:46:05;;;;;;;65.60;38.20;;;;;;;;;;6231463;23;20442;-95
2020/12/17 04:48:32;;;;;;;64.30;38.27;;;;;;;;;;6240616;23;20407;-96
2020/12/17 04:50:58;;;;;;;58.90;37.40;;;;;;;;;;6230032;23;20423;-95
2020/12/17 04:53:25;;;;;;;71.93;40.40;;;;;;;;;;6227276;23;20407;-95
2020/12/17 04:55:52;;;;;;;69.50;40.13;;;;;;;;;;6226879;23;21201;-95
2020/12/17 04:58:20;;;;;;;74.03;43.40;;;;;;;;;;6227331;23;20414;-95
2020/12/17 05:00:51;;;;;;;77.37;42.30;;;;;;;;;;6225898;23;20458;-96
2020/12/17 05:03:17;;;;;;;72.13;43.07;;;;;;;;;;6234383;23;20438;-96
2020/12/17 05:05:45;;;;;;;75.83;42.57;;;;;;;;;;6236398;23;20495;-96
2020/12/17 05:08:11;;;;;;;88.47;43.83;;;;;;;;;;6233726;23;20437;-96
2020/12/17 05:10:38;;;;;;;90.70;43.93;;;;;;;;;;6231037;23;20410;-96
2020/12/17 05:13:05;;;;;;;77.13;43.00;;;;;;;;;;6233579;23;20411;-95
2020/12/17 05:15:32;;;;;;;92.57;48.80;;;;;;;;;;6229333;23;20482;-95
2020/12/17 05:17:58;;;;;;;90.07;47.40;;;;;;;;;;6224853;23;20422;-96
2020/12/17 05:20:26;;;;;;;96.33;49.87;;;;;;;;;;6226862;23;20422;-96
2020/12/17 05:22:53;;;;;;;100.57;51.33;;;;;;;;;;6225557;23;20443;-95
2020/12/17 05:25:19;;;;;;;91.27;47.23;;;;;;;;;;6226708;23;20411;-95
2020/12/17 05:27:46;;;;;;;91.07;46.63;;;;;;;;;;6224597;23;20419;-96
2020/12/17 05:30:12;;;;;;;110.27;51.90;;;;;;;;;;6226255;23;20437;-95
2020/12/17 05:32:42;;;;;;;80.53;46.17;;;;;;;;;;6225869;23;20448;-95
2020/12/17 05:35:12;;;;;;;90.33;47.83;;;;;;;;;;6228476;23;20450;-95
2020/12/17 05:37:42;;;;;;;76.77;44.97;;;;;;;;;;6224491;23;20403;-95
2020/12/17 05:40:08;;;;;;;72.27;41.17;;;;;;;;;;6227157;23;20466;-96
2020/12/17 05:42:35;;;;;;;74.40;41.80;;;;;;;;;;6227344;23;20446;-96
2020/12/17 05:45:01;;;;;;;73.03;40.20;;;;;;;;;;6226128;23;20813;-95
2020/12/17 05:47:27;;;;;;;63.73;38.07;;;;;;;;;;6225731;23;20419;-94
2020/12/17 05:50:11;;;;;;;64.00;37.47;;;;;;;;;;6227005;23;20411;-96
2020/12/17 05:52:39;;;;;;;51.80;32.37;;;;;;;;;;6222914;23;20418;-96
2020/12/17 05:55:05;;;;;;;55.03;33.50;;;;;;;;;;6219590;23;20496;-96
2020/12/17 05:57:31;;;;;;;56.90;33.70;;;;;;;;;;6221522;23;20543;-96
2020/12/17 05:59:58;;;;;;;65.13;37.10;;;;;;;;;;6219980;23;20488;-96
2020/12/17 06:02:25;;;;;;;62.17;38.40;;;;;;;;;;6220158;23;20450;-96
2020/12/17 06:05:02;;;;;;;60.40;37.80;;;;;;;;;;6218549;23;20533;-96
2020/12/17 06:07:32;;;;;;;58.37;36.40;;;;;;;;;;6219038;23;20425;-96
2020/12/17 06:10:06;;;;;;;59.03;34.10;;;;;;;;;;6232002;23;20430;-96
2020/12/17 06:12:34;;;;;;;61.67;37.30;;;;;;;;;;6229454;23;20445;-96
2020/12/17 06:15:02;;;;;;;60.83;34.80;;;;;;;;;;6231477;23;20410;-96
2020/12/17 06:17:31;;;;;;;69.23;38.80;;;;;;;;;;6225132;23;20418;-96
2020/12/17 06:20:05;;;;;;;71.13;38.87;;;;;;;;;;6233565;23;20407;-96
2020/12/17 06:22:33;;;;;;;67.10;37.20;;;;;;;;;;6230418;23;20481;-96
2020/12/17 06:25:00;;;;;;;59.70;37.33;;;;;;;;;;6230497;23;20442;-96
2020/12/17 06:30:22;;;;;;;67.90;40.33;;;;;;;;;;6243871;22;20456;-96
2020/12/17 06:32:49;;;;;;;65.17;38.37;;;;;;;;;;6263778;22;20406;-94
2020/12/17 06:35:24;;;;;;;67.70;40.77;;;;;;;;;;6263054;23;20416;-96
2020/12/17 06:37:53;;;;;;;62.00;37.07;;;;;;;;;;6262003;22;20512;-95
2020/12/17 06:40:31;;;;;;;63.77;37.00;;;;;;;;;;6262073;22;20478;-95
2020/12/17 06:42:57;;;;;;;66.57;38.50;;;;;;;;;;6254229;23;20452;-95
2020/12/17 06:45:24;;;;;;;72.40;40.17;;;;;;;;;;6254197;23;20421;-95
2020/12/17 06:47:50;;;;;;;67.17;40.60;;;;;;;;;;6256264;23;20414;-95
2020/12/17 06:50:23;;;;;;;66.60;38.23;;;;;;;;;;6253508;23;20548;-95
2020/12/17 06:53:03;;;;;;;69.03;42.37;;;;;;;;;;6254602;23;21012;-95
2020/12/17 06:55:39;;;;;;;65.60;42.73;;;;;;;;;;6251907;23;20414;-95
2020/12/17 06:58:05;;;;;;;72.77;42.17;;;;;;;;;;6254596;23;20401;-94
2020/12/17 07:00:31;;;;;;;81.97;46.90;;;;;;;;;;6254929;23;20505;-94
2020/12/17 07:02:58;;;;;;;66.90;41.17;;;;;;;;;;6255573;23;20473;-94
2020/12/17 07:05:30;;;;;;;80.50;43.77;;;;;;;;;;6253307;23;20489;-94
2020/12/17 07:07:56;;;;;;;84.07;47.87;;;;;;;;;;6255128;23;20471;-96
2020/12/17 07:10:25;;;;;;;92.20;50.90;;;;;;;;;;6254047;23;20496;-94
2020/12/17 07:12:52;;;;;;;94.17;53.50;;;;;;;;;;6254206;23;20402;-95
2020/12/17 07:15:35;;;;;;;94.40;50.40;;;;;;;;;;6254902;23;20466;-95
2020/12/17 07:18:18;;;;;;;95.97;52.20;;;;;;;;;;6253913;23;20488;-95
2020/12/17 07:20:44;;;;;;;95.30;57.07;;;;;;;;;;6254415;23;20409;-95
2020/12/17 07:23:10;;;;;;;78.90;47.97;;;;;;;;;;6251482;23;20540;-95
2020/12/17 07:25:37;;;;;;;80.13;44.97;;;;;;;;;;6254490;23;20414;-93
2020/12/17 07:28:04;;;;;;;72.10;41.83;;;;;;;;;;6258149;23;20615;-96
2020/12/17 07:30:30;;;;;;;62.23;38.87;;;;;;;;;;6261905;23;20413;-95
2020/12/17 07:32:56;;;;;;;54.20;34.70;;;;;;;;;;6257133;23;20422;-93
2020/12/17 07:35:23;;;;;;;58.20;35.47;;;;;;;;;;6254034;23;20410;-93
2020/12/17 07:37:53;;;;;;;51.47;29.90;;;;;;;;;;6254697;23;20430;-93
2020/12/17 07:40:21;;;;;;;54.30;32.13;;;;;;;;;;6252287;22;21128;-93
2020/12/17 07:43:01;;;;;;;57.47;34.53;;;;;;;;;;6252297;23;20934;-93
2020/12/17 07:45:48;;;;;;;42.43;26.23;;;;;;;;;;6252331;23;20481;-94
2020/12/17 07:48:33;;;;;;;48.17;26.40;;;;;;;;;;6254031;23;20767;-94
2020/12/17 07:50:59;;;;;;;47.57;26.30;;;;;;;;;;6253558;23;20441;-94
2020/12/17 07:53:26;;;;;;;45.73;25.70;;;;;;;;;;6251612;23;20414;-95
2020/12/17 07:55:52;;;;;;;43.90;26.83;;;;;;;;;;6248915;23;20424;-94
2020/12/17 07:58:18;;;;;;;45.17;25.00;;;;;;;;;;6253207;23;20875;-94
2020/12/17 08:00:44;;;;;;;50.00;27.87;;;;;;;;;;6252777;23;20421;-94
2020/12/17 08:03:11;;;;;;;44.03;27.50;;;;;;;;;;6253832;23;20445;-95
2020/12/17 08:05:37;;;;;;;44.73;25.53;;;;;;;;;;6256864;23;20402;-94
2020/12/17 08:08:03;;;;;;;52.17;29.67;;;;;;;;;;6255899;23;20420;-94
2020/12/17 08:10:30;;;;;;;45.27;28.83;;;;;;;;;;6257687;23;20947;-94
2020/12/17 08:12:57;;;;;;;52.37;30.57;;;;;;;;;;6255009;23;20421;-93
2020/12/17 08:15:23;;;;;;;50.43;30.17;;;;;;;;;;6257609;23;20471;-95
2020/12/17 08:17:55;;;;;;;46.70;28.87;;;;;;;;;;6254184;23;20415;-94
2020/12/17 08:20:25;;;;;;;50.63;29.50;;;;;;;;;;6258664;23;20414;-94
2020/12/17 08:22:52;;;;;;;49.13;30.50;;;;;;;;;;6254711;23;20525;-93
2020/12/17 08:25:18;;;;;;;41.50;27.70;;;;;;;;;;6257547;22;20413;-93
2020/12/17 08:27:45;;;;;;;41.20;27.53;;;;;;;;;;6258501;23;20814;-94
2020/12/17 08:30:11;;;;;;;53.50;29.20;;;;;;;;;;6266221;23;20417;-96
2020/12/17 08:32:38;;;;;;;54.07;31.77;;;;;;;;;;6257444;23;20398;-95
2020/12/17 08:35:04;;;;;;;42.87;26.93;;;;;;;;;;6255804;23;20418;-93
2020/12/17 08:37:31;;;;;;;49.10;29.47;;;;;;;;;;6257047;23;20421;-93
2020/12/17 08:39:58;;;;;;;52.00;29.50;;;;;;;;;;6255201;23;20497;-93
2020/12/17 08:42:27;;;;;;;48.20;29.10;;;;;;;;;;6255213;23;20454;-95
2020/12/17 08:44:55;;;;;;;46.10;28.37;;;;;;;;;;6261949;23;20402;-96
2020/12/17 08:47:21;;;;;;;49.03;29.00;;;;;;;;;;6255612;23;20419;-95
2020/12/17 08:49:48;;;;;;;50.43;30.00;;;;;;;;;;6256829;23;20414;-93
2020/12/17 08:52:30;;;;;;;60.30;33.17;;;;;;;;;;6255421;23;20433;-95
2020/12/17 08:55:04;;;;;;;54.10;34.20;;;;;;;;;;6256638;22;20600;-95
2020/12/17 08:57:30;;;;;;;55.47;32.60;;;;;;;;;;6255409;23;20438;-95
2020/12/17 08:59:56;;;;;;;55.00;33.00;;;;;;;;;;6256862;23;20411;-96
2020/12/17 09:02:23;;;;;;;57.70;33.83;;;;;;;;;;6256741;23;20481;-95
2020/12/17 09:04:56;;;;;;;55.73;31.80;;;;;;;;;;6256611;23;20428;-95
2020/12/17 09:07:25;;;;;;;59.87;31.77;;;;;;;;;;6253846;23;20500;-96
2020/12/17 09:09:52;;;;;;;50.67;30.13;;;;;;;;;;6254588;23;20442;-95
2020/12/17 09:12:28;;;;;;;53.97;32.57;;;;;;;;;;6227786;23;20459;-94
2020/12/17 09:14:54;;;;;;;53.37;32.27;;;;;;;;;;6255189;23;20421;-95
2020/12/17 09:17:21;;;;;;;52.87;35.20;;;;;;;;;;6254241;23;20414;-92
2020/12/17 09:19:47;;;;;;;56.67;32.87;;;;;;;;;;6254821;23;20410;-94
2020/12/17 09:22:14;;;;;;;62.00;36.37;;;;;;;;;;6253262;23;20445;-94
2020/12/17 09:24:40;;;;;;;61.20;36.07;;;;;;;;;;6254329;23;20414;-92
2020/12/17 09:27:17;;;;;;;52.90;31.37;;;;;;;;;;6253414;23;20412;-94
2020/12/17 09:29:57;;;;;;;52.40;32.47;;;;;;;;;;6252902;23;21016;-94
2020/12/17 09:32:24;;;;;;;60.23;37.43;;;;;;;;;;6255559;23;20418;-93
2020/12/17 09:34:50;;;;;;;64.50;43.03;;;;;;;;;;6253258;23;20719;-93
2020/12/17 09:37:16;;;;;;;63.33;40.57;;;;;;;;;;6254086;23;20462;-95
2020/12/17 09:39:42;;;;;;;58.70;38.07;;;;;;;;;;6252469;23;20417;-96
2020/12/17 09:42:08;;;;;;;63.33;40.47;;;;;;;;;;6254248;23;20454;-92
2020/12/17 09:44:35;;;;;;;59.80;37.30;;;;;;;;;;6252870;23;21119;-92
2020/12/17 09:47:03;;;;;;;68.63;38.80;;;;;;;;;;6254072;23;20987;-93
2020/12/17 09:49:36;;;;;;;64.20;39.40;;;;;;;;;;6258113;23;20462;-95
2020/12/17 09:52:04;;;;;;;74.03;38.20;;;;;;;;;;6258448;23;20789;-96
2020/12/17 09:54:32;;;;;;;64.00;39.37;;;;;;;;;;6257169;23;20485;-95
2020/12/17 09:57:03;;;;;;;60.43;40.67;;;;;;;;;;6252604;23;20430;-93
2020/12/17 09:59:29;;;;;;;72.07;41.80;;;;;;;;;;6252797;23;20416;-94
2020/12/17 10:01:58;;;;;;;67.37;40.00;;;;;;;;;;6251601;23;20443;-94
2020/12/17 10:04:26;;;;;;;65.40;45.37;;;;;;;;;;6256281;23;20402;-96
2020/12/17 10:06:53;;;;;;;69.53;43.80;;;;;;;;;;6254636;23;20795;-93
2020/12/17 10:09:19;;;;;;;68.33;44.53;;;;;;;;;;6252640;23;20414;-92
2020/12/17 10:11:49;;;;;;;69.63;43.10;;;;;;;;;;6254280;23;20403;-93
2020/12/17 10:14:15;;;;;;;61.90;40.27;;;;;;;;;;6255488;23;20918;-94
2020/12/17 10:16:41;;;;;;;80.97;50.47;;;;;;;;;;6261858;23;20416;-92
2020/12/17 10:19:07;;;;;;;68.53;41.70;;;;;;;;;;6262007;23;20411;-92
2020/12/17 10:21:34;;;;;;;75.10;45.23;;;;;;;;;;6255034;23;20473;-93
2020/12/17 10:24:00;;;;;;;77.53;48.50;;;;;;;;;;6253514;23;20409;-94
2020/12/17 10:26:26;;;;;;;76.30;47.57;;;;;;;;;;6255518;23;20410;-91
2020/12/17 10:28:54;;;;;;;75.60;49.57;;;;;;;;;;6254635;23;20769;-96
2020/12/17 10:31:21;;;;;;;78.03;46.43;;;;;;;;;;6254225;23;20422;-95
2020/12/17 10:33:47;;;;;;;80.90;47.10;;;;;;;;;;6252335;23;21020;-90
2020/12/17 10:36:13;;;;;;;77.30;49.20;;;;;;;;;;6256563;23;20410;-92
2020/12/17 10:38:40;;;;;;;80.87;48.17;;;;;;;;;;6256287;23;20417;-93
2020/12/17 10:41:06;;;;;;;62.93;43.57;;;;;;;;;;6253495;23;20473;-94
2020/12/17 10:43:32;;;;;;;64.30;41.83;;;;;;;;;;6253934;23;20454;-94
2020/12/17 10:45:58;;;;;;;72.50;42.67;;;;;;;;;;6254347;23;20962;-94
2020/12/17 10:48:24;;;;;;;59.90;35.60;;;;;;;;;;6255021;23;20438;-93
2020/12/17 10:50:50;;;;;;;58.17;36.47;;;;;;;;;;6254635;23;20448;-94
2020/12/17 10:53:16;;;;;;;63.63;39.17;;;;;;;;;;6256194;23;20398;-94
2020/12/17 10:55:43;;;;;;;58.37;37.10;;;;;;;;;;6254267;23;20446;-94
2020/12/17 10:58:11;;;;;;;64.43;45.23;;;;;;;;;;6254129;23;20489;-93
2020/12/17 11:00:37;;;;;;;63.10;38.33;;;;;;;;;;6253788;23;20421;-94
2020/12/17 11:03:05;;;;;;;62.90;41.60;;;;;;;;;;6251511;23;20450;-93
2020/12/17 11:05:31;;;;;;;67.20;42.83;;;;;;;;;;6252407;23;20473;-94
2020/12/17 11:07:57;;;;;;;60.90;37.93;;;;;;;;;;6251968;23;20411;-94
2020/12/17 11:10:23;;;;;;;70.03;43.80;;;;;;;;;;6253273;23;20420;-94
2020/12/17 11:12:50;;;;;;;59.80;39.10;;;;;;;;;;6249641;23;21194;-94
2020/12/17 11:15:16;;;;;;;59.13;37.27;;;;;;;;;;6252557;23;20411;-94
2020/12/17 11:17:42;;;;;;;64.77;40.00;;;;;;;;;;6248680;23;20412;-93
2020/12/17 11:20:08;;;;;;;70.23;43.70;;;;;;;;;;6249315;23;20422;-93
2020/12/17 11:22:34;;;;;;;71.27;45.57;;;;;;;;;;6258218;23;20862;-94
2020/12/17 11:25:01;;;;;;;75.30;44.07;;;;;;;;;;6257769;23;20513;-94
2020/12/17 11:27:27;;;;;;;56.93;37.90;;;;;;;;;;6260136;23;20454;-94
2020/12/17 11:29:54;;;;;;;59.40;36.97;;;;;;;;;;6259717;23;20410;-96
2020/12/17 11:32:20;;;;;;;56.80;37.83;;;;;;;;;;6259363;23;20410;-96
2020/12/17 11:34:48;;;;;;;64.43;40.40;;;;;;;;;;6258910;23;20750;-95
2020/12/17 11:37:14;;;;;;;49.97;34.60;;;;;;;;;;6260262;23;20442;-94
2020/12/17 11:39:41;;;;;;;65.00;37.23;;;;;;;;;;6259986;23;20411;-96
2020/12/17 11:42:07;;;;;;;50.63;34.70;;;;;;;;;;6260544;23;20458;-95
2020/12/17 11:44:33;;;;;;;44.07;26.83;;;;;;;;;;6258872;23;20409;-95
2020/12/17 11:47:00;;;;;;;37.40;24.40;;;;;;;;;;6256609;23;20429;-93
2020/12/17 11:49:29;;;;;;;42.03;26.87;;;;;;;;;;6258947;23;20404;-95
2020/12/17 11:51:55;;;;;;;40.20;24.67;;;;;;;;;;6255557;23;20505;-95
2020/12/17 11:54:24;;;;;;;41.63;23.83;;;;;;;;;;6257508;23;20413;-94
2020/12/17 11:56:50;;;;;;;39.00;21.97;;;;;;;;;;6255740;23;20510;-94
2020/12/17 11:59:16;;;;;;;33.23;23.07;;;;;;;;;;6260486;23;20414;-94
2020/12/17 12:01:42;;;;;;;37.07;22.80;;;;;;;;;;6258650;23;20449;-94
2020/12/17 12:04:09;;;;;;;43.70;25.60;;;;;;;;;;6260547;23;20408;-93
2020/12/17 12:06:35;;;;;;;35.77;23.40;;;;;;;;;;6264474;23;20477;-95
2020/12/17 12:09:01;;;;;;;34.10;23.07;;;;;;;;;;6258776;23;20470;-94
2020/12/17 12:11:27;;;;;;;39.60;23.83;;;;;;;;;;6257941;23;20412;-95
2020/12/17 12:13:54;;;;;;;49.40;36.17;;;;;;;;;;6255982;23;20509;-94
2020/12/17 12:16:20;;;;;;;51.23;36.17;;;;;;;;;;6255574;23;20416;-92
2020/12/17 12:18:48;;;;;;;39.43;27.50;;;;;;;;;;6255059;23;20416;-95
2020/12/17 12:21:16;;;;;;;39.03;25.57;;;;;;;;;;6258152;23;20410;-95
2020/12/17 12:23:46;;;;;;;42.90;29.93;;;;;;;;;;6260100;23;20466;-96
2020/12/17 12:26:14;;;;;;;40.53;27.27;;;;;;;;;;6263719;23;20458;-96
2020/12/17 12:28:41;;;;;;;35.07;24.37;;;;;;;;;;6255037;23;20417;-95
2020/12/17 12:31:07;;;;;;;43.43;26.90;;;;;;;;;;6254185;23;20423;-94
2020/12/17 12:33:33;;;;;;;41.70;28.20;;;;;;;;;;6255977;23;20423;-95
2020/12/17 12:35:59;;;;;;;44.93;28.33;;;;;;;;;;6254648;23;20419;-95
2020/12/17 12:38:26;;;;;;;43.60;26.53;;;;;;;;;;6256543;23;20415;-94
2020/12/17 12:40:52;;;;;;;42.00;25.73;;;;;;;;;;6254792;23;20714;-95
2020/12/17 12:43:18;;;;;;;43.43;25.70;;;;;;;;;;6255767;23;20539;-95
2020/12/17 12:45:44;;;;;;;40.60;26.37;;;;;;;;;;6252984;23;20782;-96
2020/12/17 12:48:10;;;;;;;41.07;26.63;;;;;;;;;;6254995;23;20417;-96
2020/12/17 12:50:36;;;;;;;37.57;25.77;;;;;;;;;;6254881;23;20413;-95
2020/12/17 12:53:02;;;;;;;38.37;25.70;;;;;;;;;;6253049;23;20415;-94
2020/12/17 12:55:29;;;;;;;41.50;28.17;;;;;;;;;;6254728;23;20444;-94
2020/12/17 12:57:55;;;;;;;43.30;28.97;;;;;;;;;;6252927;23;21410;-94
2020/12/17 13:00:23;;;;;;;43.20;27.57;;;;;;;;;;6255448;23;20430;-94
2020/12/17 13:02:49;;;;;;;44.13;26.77;;;;;;;;;;6248306;23;20684;-93
2020/12/17 13:05:15;;;;;;;41.07;27.17;;;;;;;;;;6248237;23;20478;-94
2020/12/17 13:07:41;;;;;;;40.20;25.57;;;;;;;;;;6248950;23;21273;-93
2020/12/17 13:10:07;;;;;;;39.17;27.60;;;;;;;;;;6250141;23;20415;-93
2020/12/17 13:12:34;;;;;;;41.27;29.40;;;;;;;;;;6247775;23;20411;-93
2020/12/17 13:15:00;;;;;;;40.07;27.80;;;;;;;;;;6247211;23;20421;-95
2020/12/17 13:17:26;;;;;;;41.57;27.50;;;;;;;;;;6253034;23;20415;-94
2020/12/17 13:19:52;;;;;;;37.47;26.20;;;;;;;;;;6254244;23;20412;-93
2020/12/17 13:22:18;;;;;;;40.20;25.47;;;;;;;;;;6254257;23;20454;-94
2020/12/17 13:24:44;;;;;;;42.13;28.80;;;;;;;;;;6252778;23;20779;-93
2020/12/17 13:27:10;;;;;;;40.03;29.23;;;;;;;;;;6254069;23;20413;-93
2020/12/17 13:29:37;;;;;;;38.53;27.13;;;;;;;;;;6252179;23;20414;-93
2020/12/17 13:32:03;;;;;;;40.20;27.97;;;;;;;;;;6256001;23;20419;-93
2020/12/17 13:34:29;;;;;;;39.13;27.77;;;;;;;;;;6254657;23;20421;-94
2020/12/17 13:36:55;;;;;;;42.97;27.60;;;;;;;;;;6255605;23;20417;-93
2020/12/17 13:39:21;;;;;;;44.00;27.07;;;;;;;;;;6254705;23;20424;-94
2020/12/17 13:41:50;;;;;;;43.53;28.10;;;;;;;;;;6251197;23;20441;-95
2020/12/17 13:44:16;;;;;;;42.30;28.60;;;;;;;;;;6253965;23;20403;-94
2020/12/17 13:46:43;;;;;;;42.23;28.07;;;;;;;;;;6251742;23;20470;-94
2020/12/17 13:49:09;;;;;;;47.03;29.23;;;;;;;;;;6254382;23;20415;-93
2020/12/17 13:51:35;;;;;;;48.43;30.03;;;;;;;;;;6254371;23;20421;-94
2020/12/17 13:54:02;;;;;;;48.67;31.10;;;;;;;;;;6257252;23;20402;-93
2020/12/17 13:56:28;;;;;;;45.00;30.20;;;;;;;;;;6262707;23;20442;-93
2020/12/17 13:58:54;;;;;;;43.30;28.83;;;;;;;;;;6258798;23;20521;-93
2020/12/17 14:01:21;;;;;;;42.17;27.17;;;;;;;;;;6253478;23;20420;-94
2020/12/17 14:03:48;;;;;;;42.17;26.80;;;;;;;;;;6251696;23;20457;-92
2020/12/17 14:06:19;;;;;;;35.50;23.27;;;;;;;;;;6254664;23;20414;-92
2020/12/17 14:08:45;;;;;;;40.60;25.30;;;;;;;;;;6252119;23;20413;-93
2020/12/17 14:11:13;;;;;;;37.90;25.23;;;;;;;;;;6252890;23;20412;-93
2020/12/17 14:13:39;;;;;;;37.23;26.77;;;;;;;;;;6251748;23;20413;-94
2020/12/17 14:16:05;;;;;;;44.30;26.07;;;;;;;;;;6255977;23;20481;-92
2020/12/17 14:18:31;;;;;;;40.33;27.90;;;;;;;;;;6255440;23;20775;-93